sensor_id;sensor_type;location;lat;lon;timestamp;P1;durP1;ratioP1;P2;durP2;ratioP2
10333;SDS011;5212;47.892;16.406;2023-04-01T00:00:59;2.40;;;0.90;;
10333;SDS011;5212;47.892;16.406;2023-04-01T00:03:26;1.83;;;0.80;;
10333;SDS011;5212;47.892;16.406;2023-04-01T00:05:52;1.40;;;0.80;;
10333;SDS011;5212;47.892;16.406;2023-04-01T00:08:20;1.20;;;0.70;;
10333;SDS011;5212;47.892;16.406;2023-04-01T00:10:46;1.27;;;0.70;;
10333;SDS011;5212;47.892;16.406;2023-04-01T00:13:12;1.43;;;0.80;;
10333;SDS011;5212;47.892;16.406;2023-04-01T00:15:39;1.70;;;1.10;;
10333;SDS011;5212;47.892;16.406;2023-04-01T00:18:06;1.20;;;0.90;;
10333;SDS011;5212;47.892;16.406;2023-04-01T00:20:33;2.10;;;0.90;;
10333;SDS011;5212;47.892;16.406;2023-04-01T00:23:00;2.87;;;1.00;;
10333;SDS011;5212;47.892;16.406;2023-04-01T00:25:28;2.67;;;1.00;;
10333;SDS011;5212;47.892;16.406;2023-04-01T00:27:54;1.60;;;0.80;;
10333;SDS011;5212;47.892;16.406;2023-04-01T00:30:20;1.83;;;0.80;;
10333;SDS011;5212;47.892;16.406;2023-04-01T00:32:47;2.77;;;0.90;;
10333;SDS011;5212;47.892;16.406;2023-04-01T00:35:17;2.20;;;1.00;;
10333;SDS011;5212;47.892;16.406;2023-04-01T00:37:43;1.00;;;0.70;;
10333;SDS011;5212;47.892;16.406;2023-04-01T00:40:11;1.63;;;0.90;;
10333;SDS011;5212;47.892;16.406;2023-04-01T00:42:50;1.53;;;1.00;;
10333;SDS011;5212;47.892;16.406;2023-04-01T00:45:28;1.83;;;0.80;;
10333;SDS011;5212;47.892;16.406;2023-04-01T00:47:57;1.80;;;0.60;;
10333;SDS011;5212;47.892;16.406;2023-04-01T00:50:25;1.97;;;0.80;;
10333;SDS011;5212;47.892;16.406;2023-04-01T00:52:52;1.20;;;0.60;;
10333;SDS011;5212;47.892;16.406;2023-04-01T00:55:19;1.83;;;0.80;;
10333;SDS011;5212;47.892;16.406;2023-04-01T00:57:46;2.73;;;1.00;;
10333;SDS011;5212;47.892;16.406;2023-04-01T01:00:16;2.17;;;0.83;;
10333;SDS011;5212;47.892;16.406;2023-04-01T01:02:44;1.10;;;0.73;;
10333;SDS011;5212;47.892;16.406;2023-04-01T01:05:11;2.43;;;1.30;;
10333;SDS011;5212;47.892;16.406;2023-04-01T01:07:40;1.67;;;0.90;;
10333;SDS011;5212;47.892;16.406;2023-04-01T01:10:09;1.63;;;0.90;;
10333;SDS011;5212;47.892;16.406;2023-04-01T01:12:39;2.07;;;1.00;;
10333;SDS011;5212;47.892;16.406;2023-04-01T01:15:09;2.83;;;1.23;;
10333;SDS011;5212;47.892;16.406;2023-04-01T01:17:44;1.93;;;0.90;;
10333;SDS011;5212;47.892;16.406;2023-04-01T01:20:18;3.23;;;0.90;;
10333;SDS011;5212;47.892;16.406;2023-04-01T01:23:19;2.50;;;1.00;;
10333;SDS011;5212;47.892;16.406;2023-04-01T01:25:56;3.40;;;0.90;;
10333;SDS011;5212;47.892;16.406;2023-04-01T01:28:29;2.27;;;0.80;;
10333;SDS011;5212;47.892;16.406;2023-04-01T01:31:03;2.20;;;0.83;;
10333;SDS011;5212;47.892;16.406;2023-04-01T01:33:43;1.83;;;0.80;;
10333;SDS011;5212;47.892;16.406;2023-04-01T01:36:33;1.80;;;0.90;;
10333;SDS011;5212;47.892;16.406;2023-04-01T01:39:00;2.43;;;0.87;;
10333;SDS011;5212;47.892;16.406;2023-04-01T01:41:27;2.33;;;0.80;;
10333;SDS011;5212;47.892;16.406;2023-04-01T01:43:57;3.00;;;0.97;;
10333;SDS011;5212;47.892;16.406;2023-04-01T01:46:26;1.80;;;0.90;;
10333;SDS011;5212;47.892;16.406;2023-04-01T01:48:54;2.27;;;0.80;;
10333;SDS011;5212;47.892;16.406;2023-04-01T01:51:21;3.03;;;0.90;;
10333;SDS011;5212;47.892;16.406;2023-04-01T01:53:49;3.10;;;1.00;;
10333;SDS011;5212;47.892;16.406;2023-04-01T01:56:16;1.40;;;0.90;;
10333;SDS011;5212;47.892;16.406;2023-04-01T01:58:43;2.10;;;0.80;;
10333;SDS011;5212;47.892;16.406;2023-04-01T02:01:11;1.83;;;0.90;;
10333;SDS011;5212;47.892;16.406;2023-04-01T02:03:40;4.40;;;1.03;;
10333;SDS011;5212;47.892;16.406;2023-04-01T02:06:09;1.77;;;0.80;;
10333;SDS011;5212;47.892;16.406;2023-04-01T02:08:39;3.00;;;0.83;;
10333;SDS011;5212;47.892;16.406;2023-04-01T02:11:08;2.97;;;1.10;;
10333;SDS011;5212;47.892;16.406;2023-04-01T02:13:37;2.63;;;0.80;;
10333;SDS011;5212;47.892;16.406;2023-04-01T02:16:06;1.77;;;1.03;;
10333;SDS011;5212;47.892;16.406;2023-04-01T02:18:38;3.50;;;0.97;;
10333;SDS011;5212;47.892;16.406;2023-04-01T02:21:05;3.03;;;0.80;;
10333;SDS011;5212;47.892;16.406;2023-04-01T02:23:34;2.30;;;1.00;;
10333;SDS011;5212;47.892;16.406;2023-04-01T02:26:01;1.70;;;1.00;;
10333;SDS011;5212;47.892;16.406;2023-04-01T02:28:29;2.10;;;0.70;;
10333;SDS011;5212;47.892;16.406;2023-04-01T02:30:57;2.00;;;0.93;;
10333;SDS011;5212;47.892;16.406;2023-04-01T02:33:27;2.00;;;1.00;;
10333;SDS011;5212;47.892;16.406;2023-04-01T02:35:54;3.10;;;1.10;;
10333;SDS011;5212;47.892;16.406;2023-04-01T02:38:20;2.17;;;1.10;;
10333;SDS011;5212;47.892;16.406;2023-04-01T02:40:48;4.03;;;1.10;;
10333;SDS011;5212;47.892;16.406;2023-04-01T02:43:15;3.30;;;1.00;;
10333;SDS011;5212;47.892;16.406;2023-04-01T02:45:43;3.37;;;1.20;;
10333;SDS011;5212;47.892;16.406;2023-04-01T02:48:10;2.17;;;0.80;;
10333;SDS011;5212;47.892;16.406;2023-04-01T02:50:37;4.67;;;1.20;;
10333;SDS011;5212;47.892;16.406;2023-04-01T02:53:05;3.57;;;1.30;;
10333;SDS011;5212;47.892;16.406;2023-04-01T02:55:31;2.23;;;0.90;;
10333;SDS011;5212;47.892;16.406;2023-04-01T02:57:58;1.97;;;0.80;;
10333;SDS011;5212;47.892;16.406;2023-04-01T03:00:26;2.33;;;1.00;;
10333;SDS011;5212;47.892;16.406;2023-04-01T03:02:53;2.23;;;0.90;;
10333;SDS011;5212;47.892;16.406;2023-04-01T03:05:21;2.27;;;1.03;;
10333;SDS011;5212;47.892;16.406;2023-04-01T03:07:48;2.83;;;0.93;;
10333;SDS011;5212;47.892;16.406;2023-04-01T03:10:15;1.57;;;0.80;;
10333;SDS011;5212;47.892;16.406;2023-04-01T03:12:41;3.53;;;1.13;;
10333;SDS011;5212;47.892;16.406;2023-04-01T03:15:09;1.67;;;0.87;;
10333;SDS011;5212;47.892;16.406;2023-04-01T03:17:36;1.03;;;0.90;;
10333;SDS011;5212;47.892;16.406;2023-04-01T03:20:04;2.13;;;0.93;;
10333;SDS011;5212;47.892;16.406;2023-04-01T03:22:34;1.93;;;0.90;;
10333;SDS011;5212;47.892;16.406;2023-04-01T03:25:01;1.20;;;0.97;;
10333;SDS011;5212;47.892;16.406;2023-04-01T03:27:28;2.53;;;1.10;;
10333;SDS011;5212;47.892;16.406;2023-04-01T03:29:55;2.93;;;0.93;;
10333;SDS011;5212;47.892;16.406;2023-04-01T03:32:21;1.63;;;0.90;;
10333;SDS011;5212;47.892;16.406;2023-04-01T03:34:47;2.60;;;1.00;;
10333;SDS011;5212;47.892;16.406;2023-04-01T03:37:15;0.90;;;0.70;;
10333;SDS011;5212;47.892;16.406;2023-04-01T03:39:41;3.93;;;0.97;;
10333;SDS011;5212;47.892;16.406;2023-04-01T03:42:08;1.83;;;0.87;;
10333;SDS011;5212;47.892;16.406;2023-04-01T03:44:34;1.13;;;0.80;;
10333;SDS011;5212;47.892;16.406;2023-04-01T03:47:04;2.50;;;1.00;;
10333;SDS011;5212;47.892;16.406;2023-04-01T03:49:31;1.90;;;0.80;;
10333;SDS011;5212;47.892;16.406;2023-04-01T03:51:57;2.80;;;0.83;;
10333;SDS011;5212;47.892;16.406;2023-04-01T03:54:26;1.73;;;1.00;;
10333;SDS011;5212;47.892;16.406;2023-04-01T03:56:52;0.90;;;0.60;;
10333;SDS011;5212;47.892;16.406;2023-04-01T03:59:20;1.90;;;0.80;;
10333;SDS011;5212;47.892;16.406;2023-04-01T04:01:46;1.63;;;0.70;;
10333;SDS011;5212;47.892;16.406;2023-04-01T04:04:13;2.47;;;0.70;;
10333;SDS011;5212;47.892;16.406;2023-04-01T04:06:39;1.83;;;1.00;;
10333;SDS011;5212;47.892;16.406;2023-04-01T04:09:06;1.17;;;0.80;;
10333;SDS011;5212;47.892;16.406;2023-04-01T04:11:33;1.53;;;0.73;;
10333;SDS011;5212;47.892;16.406;2023-04-01T04:13:59;1.37;;;0.70;;
10333;SDS011;5212;47.892;16.406;2023-04-01T04:16:26;2.00;;;0.93;;
10333;SDS011;5212;47.892;16.406;2023-04-01T04:18:53;1.60;;;0.80;;
10333;SDS011;5212;47.892;16.406;2023-04-01T04:21:19;2.40;;;1.07;;
10333;SDS011;5212;47.892;16.406;2023-04-01T04:23:46;3.23;;;0.80;;
10333;SDS011;5212;47.892;16.406;2023-04-01T04:26:13;1.20;;;0.80;;
10333;SDS011;5212;47.892;16.406;2023-04-01T04:28:41;0.80;;;0.70;;
10333;SDS011;5212;47.892;16.406;2023-04-01T04:31:07;2.13;;;0.80;;
10333;SDS011;5212;47.892;16.406;2023-04-01T04:33:34;1.50;;;0.70;;
10333;SDS011;5212;47.892;16.406;2023-04-01T04:36:01;2.80;;;0.70;;
10333;SDS011;5212;47.892;16.406;2023-04-01T04:38:28;2.13;;;0.77;;
10333;SDS011;5212;47.892;16.406;2023-04-01T04:40:55;1.17;;;0.80;;
10333;SDS011;5212;47.892;16.406;2023-04-01T04:43:21;0.93;;;0.60;;
10333;SDS011;5212;47.892;16.406;2023-04-01T04:45:49;1.83;;;1.00;;
10333;SDS011;5212;47.892;16.406;2023-04-01T04:48:16;1.63;;;0.90;;
10333;SDS011;5212;47.892;16.406;2023-04-01T04:50:45;1.90;;;0.90;;
10333;SDS011;5212;47.892;16.406;2023-04-01T04:53:12;1.17;;;0.80;;
10333;SDS011;5212;47.892;16.406;2023-04-01T04:55:42;2.33;;;1.10;;
10333;SDS011;5212;47.892;16.406;2023-04-01T04:58:09;3.03;;;0.93;;
10333;SDS011;5212;47.892;16.406;2023-04-01T05:00:35;1.37;;;0.80;;
10333;SDS011;5212;47.892;16.406;2023-04-01T05:03:03;0.90;;;0.80;;
10333;SDS011;5212;47.892;16.406;2023-04-01T05:05:30;1.57;;;0.90;;
10333;SDS011;5212;47.892;16.406;2023-04-01T05:07:56;1.37;;;1.00;;
10333;SDS011;5212;47.892;16.406;2023-04-01T05:10:22;1.67;;;0.80;;
10333;SDS011;5212;47.892;16.406;2023-04-01T05:12:49;2.10;;;0.70;;
10333;SDS011;5212;47.892;16.406;2023-04-01T05:15:16;1.53;;;0.70;;
10333;SDS011;5212;47.892;16.406;2023-04-01T05:17:42;1.47;;;0.60;;
10333;SDS011;5212;47.892;16.406;2023-04-01T05:20:11;2.67;;;1.10;;
10333;SDS011;5212;47.892;16.406;2023-04-01T05:22:38;1.10;;;0.60;;
10333;SDS011;5212;47.892;16.406;2023-04-01T05:25:05;1.17;;;0.73;;
10333;SDS011;5212;47.892;16.406;2023-04-01T05:27:31;1.00;;;0.70;;
10333;SDS011;5212;47.892;16.406;2023-04-01T05:29:58;1.57;;;0.90;;
10333;SDS011;5212;47.892;16.406;2023-04-01T05:32:24;1.10;;;0.70;;
10333;SDS011;5212;47.892;16.406;2023-04-01T05:34:51;1.03;;;0.70;;
10333;SDS011;5212;47.892;16.406;2023-04-01T05:37:19;1.00;;;0.70;;
10333;SDS011;5212;47.892;16.406;2023-04-01T05:39:45;1.30;;;0.73;;
10333;SDS011;5212;47.892;16.406;2023-04-01T05:42:12;2.50;;;0.70;;
10333;SDS011;5212;47.892;16.406;2023-04-01T05:44:38;2.57;;;0.70;;
10333;SDS011;5212;47.892;16.406;2023-04-01T05:47:05;1.40;;;0.70;;
10333;SDS011;5212;47.892;16.406;2023-04-01T05:49:32;1.23;;;0.63;;
10333;SDS011;5212;47.892;16.406;2023-04-01T05:51:59;1.00;;;0.67;;
10333;SDS011;5212;47.892;16.406;2023-04-01T05:54:26;1.10;;;0.70;;
10333;SDS011;5212;47.892;16.406;2023-04-01T05:56:53;1.33;;;0.70;;
10333;SDS011;5212;47.892;16.406;2023-04-01T05:59:19;1.50;;;0.70;;
10333;SDS011;5212;47.892;16.406;2023-04-01T06:01:45;1.10;;;0.67;;
10333;SDS011;5212;47.892;16.406;2023-04-01T06:04:13;1.27;;;0.60;;
10333;SDS011;5212;47.892;16.406;2023-04-01T06:06:41;2.33;;;0.60;;
10333;SDS011;5212;47.892;16.406;2023-04-01T06:09:10;1.47;;;0.60;;
10333;SDS011;5212;47.892;16.406;2023-04-01T06:11:46;1.00;;;0.70;;
10333;SDS011;5212;47.892;16.406;2023-04-01T06:14:26;1.33;;;0.53;;
10333;SDS011;5212;47.892;16.406;2023-04-01T06:17:00;3.53;;;0.70;;
10333;SDS011;5212;47.892;16.406;2023-04-01T06:19:36;1.50;;;0.70;;
10333;SDS011;5212;47.892;16.406;2023-04-01T06:22:14;2.07;;;0.80;;
10333;SDS011;5212;47.892;16.406;2023-04-01T06:24:53;1.40;;;0.70;;
10333;SDS011;5212;47.892;16.406;2023-04-01T06:27:33;1.37;;;0.67;;
10333;SDS011;5212;47.892;16.406;2023-04-01T06:30:10;1.93;;;0.60;;
10333;SDS011;5212;47.892;16.406;2023-04-01T06:32:52;1.03;;;0.70;;
10333;SDS011;5212;47.892;16.406;2023-04-01T06:35:41;1.37;;;0.70;;
10333;SDS011;5212;47.892;16.406;2023-04-01T06:41:06;3.87;;;0.90;;
10333;SDS011;5212;47.892;16.406;2023-04-01T06:43:43;2.20;;;0.90;;
10333;SDS011;5212;47.892;16.406;2023-04-01T06:46:16;1.73;;;0.80;;
10333;SDS011;5212;47.892;16.406;2023-04-01T06:48:51;1.43;;;0.80;;
10333;SDS011;5212;47.892;16.406;2023-04-01T06:51:26;2.40;;;0.73;;
10333;SDS011;5212;47.892;16.406;2023-04-01T06:54:00;1.50;;;0.80;;
10333;SDS011;5212;47.892;16.406;2023-04-01T06:56:29;1.10;;;0.77;;
10333;SDS011;5212;47.892;16.406;2023-04-01T06:58:57;2.13;;;0.80;;
10333;SDS011;5212;47.892;16.406;2023-04-01T07:01:26;1.53;;;0.93;;
10333;SDS011;5212;47.892;16.406;2023-04-01T07:03:58;1.30;;;0.80;;
10333;SDS011;5212;47.892;16.406;2023-04-01T07:06:27;1.00;;;0.70;;
10333;SDS011;5212;47.892;16.406;2023-04-01T07:08:58;1.33;;;0.70;;
10333;SDS011;5212;47.892;16.406;2023-04-01T07:11:26;1.57;;;0.83;;
10333;SDS011;5212;47.892;16.406;2023-04-01T07:13:58;1.43;;;0.87;;
10333;SDS011;5212;47.892;16.406;2023-04-01T07:16:29;1.67;;;0.80;;
10333;SDS011;5212;47.892;16.406;2023-04-01T07:18:57;3.43;;;0.80;;
10333;SDS011;5212;47.892;16.406;2023-04-01T07:21:29;1.63;;;0.80;;
10333;SDS011;5212;47.892;16.406;2023-04-01T07:24:01;2.57;;;0.80;;
10333;SDS011;5212;47.892;16.406;2023-04-01T07:26:31;1.63;;;0.70;;
10333;SDS011;5212;47.892;16.406;2023-04-01T07:28:58;1.90;;;0.90;;
10333;SDS011;5212;47.892;16.406;2023-04-01T07:31:29;1.10;;;0.60;;
10333;SDS011;5212;47.892;16.406;2023-04-01T07:34:03;1.77;;;0.83;;
10333;SDS011;5212;47.892;16.406;2023-04-01T07:36:35;1.83;;;1.00;;
10333;SDS011;5212;47.892;16.406;2023-04-01T07:39:08;1.60;;;0.90;;
10333;SDS011;5212;47.892;16.406;2023-04-01T07:41:42;2.33;;;0.83;;
10333;SDS011;5212;47.892;16.406;2023-04-01T07:44:17;2.20;;;0.70;;
10333;SDS011;5212;47.892;16.406;2023-04-01T07:46:55;1.47;;;0.60;;
10333;SDS011;5212;47.892;16.406;2023-04-01T07:49:30;1.50;;;0.60;;
10333;SDS011;5212;47.892;16.406;2023-04-01T07:52:04;1.77;;;0.70;;
10333;SDS011;5212;47.892;16.406;2023-04-01T07:54:33;2.40;;;0.83;;
10333;SDS011;5212;47.892;16.406;2023-04-01T07:57:06;0.73;;;0.50;;
10333;SDS011;5212;47.892;16.406;2023-04-01T07:59:38;1.23;;;0.60;;
10333;SDS011;5212;47.892;16.406;2023-04-01T08:02:10;3.93;;;0.77;;
10333;SDS011;5212;47.892;16.406;2023-04-01T08:04:47;1.27;;;0.47;;
10333;SDS011;5212;47.892;16.406;2023-04-01T08:07:20;6.83;;;0.87;;
10333;SDS011;5212;47.892;16.406;2023-04-01T08:09:51;1.20;;;0.60;;
10333;SDS011;5212;47.892;16.406;2023-04-01T08:12:27;1.97;;;0.77;;
10333;SDS011;5212;47.892;16.406;2023-04-01T08:15:02;2.20;;;0.60;;
10333;SDS011;5212;47.892;16.406;2023-04-01T08:17:37;2.27;;;0.70;;
10333;SDS011;5212;47.892;16.406;2023-04-01T08:20:13;1.57;;;0.60;;
10333;SDS011;5212;47.892;16.406;2023-04-01T08:22:45;0.97;;;0.60;;
10333;SDS011;5212;47.892;16.406;2023-04-01T08:25:16;2.20;;;0.50;;
10333;SDS011;5212;47.892;16.406;2023-04-01T08:27:45;1.20;;;0.63;;
10333;SDS011;5212;47.892;16.406;2023-04-01T08:30:19;1.07;;;0.53;;
10333;SDS011;5212;47.892;16.406;2023-04-01T08:32:47;0.60;;;0.50;;
10333;SDS011;5212;47.892;16.406;2023-04-01T08:35:18;2.80;;;0.50;;
10333;SDS011;5212;47.892;16.406;2023-04-01T08:37:48;0.90;;;0.50;;
10333;SDS011;5212;47.892;16.406;2023-04-01T08:40:22;0.80;;;0.40;;
10333;SDS011;5212;47.892;16.406;2023-04-01T08:43:00;0.70;;;0.40;;
10333;SDS011;5212;47.892;16.406;2023-04-01T08:45:39;1.13;;;0.60;;
10333;SDS011;5212;47.892;16.406;2023-04-01T08:48:37;0.97;;;0.50;;
10333;SDS011;5212;47.892;16.406;2023-04-01T08:51:16;1.73;;;0.50;;
10333;SDS011;5212;47.892;16.406;2023-04-01T08:54:14;0.97;;;0.70;;
10333;SDS011;5212;47.892;16.406;2023-04-01T08:56:56;0.77;;;0.60;;
10333;SDS011;5212;47.892;16.406;2023-04-01T08:59:32;1.10;;;0.50;;
10333;SDS011;5212;47.892;16.406;2023-04-01T09:02:20;0.97;;;0.50;;
10333;SDS011;5212;47.892;16.406;2023-04-01T09:05:22;1.27;;;0.50;;
10333;SDS011;5212;47.892;16.406;2023-04-01T09:07:58;1.10;;;0.50;;
10333;SDS011;5212;47.892;16.406;2023-04-01T09:10:39;0.93;;;0.50;;
10333;SDS011;5212;47.892;16.406;2023-04-01T09:13:20;0.40;;;0.40;;
10333;SDS011;5212;47.892;16.406;2023-04-01T09:16:01;0.77;;;0.50;;
10333;SDS011;5212;47.892;16.406;2023-04-01T09:18:49;1.43;;;0.70;;
10333;SDS011;5212;47.892;16.406;2023-04-01T09:21:25;1.57;;;0.50;;
10333;SDS011;5212;47.892;16.406;2023-04-01T09:27:04;0.70;;;0.50;;
10333;SDS011;5212;47.892;16.406;2023-04-01T09:29:49;0.57;;;0.50;;
10333;SDS011;5212;47.892;16.406;2023-04-01T09:32:42;1.10;;;0.50;;
10333;SDS011;5212;47.892;16.406;2023-04-01T09:35:24;0.53;;;0.40;;
10333;SDS011;5212;47.892;16.406;2023-04-01T09:37:55;0.80;;;0.37;;
10333;SDS011;5212;47.892;16.406;2023-04-01T09:40:31;0.70;;;0.40;;
10333;SDS011;5212;47.892;16.406;2023-04-01T09:43:12;0.53;;;0.40;;
10333;SDS011;5212;47.892;16.406;2023-04-01T09:45:44;1.63;;;0.60;;
10333;SDS011;5212;47.892;16.406;2023-04-01T09:48:18;0.40;;;0.40;;
10333;SDS011;5212;47.892;16.406;2023-04-01T09:50:53;1.33;;;0.50;;
10333;SDS011;5212;47.892;16.406;2023-04-01T09:53:29;1.60;;;0.50;;
10333;SDS011;5212;47.892;16.406;2023-04-01T10:05:25;0.40;;;0.40;;
10333;SDS011;5212;47.892;16.406;2023-04-01T10:08:17;1.13;;;0.50;;
10333;SDS011;5212;47.892;16.406;2023-04-01T10:11:11;0.80;;;0.43;;
10333;SDS011;5212;47.892;16.406;2023-04-01T10:22:51;0.60;;;0.40;;
10333;SDS011;5212;47.892;16.406;2023-04-01T10:25:43;0.40;;;0.40;;
10333;SDS011;5212;47.892;16.406;2023-04-01T10:34:39;0.47;;;0.40;;
10333;SDS011;5212;47.892;16.406;2023-04-01T10:37:39;1.23;;;0.50;;
10333;SDS011;5212;47.892;16.406;2023-04-01T10:40:20;1.37;;;0.47;;
10333;SDS011;5212;47.892;16.406;2023-04-01T10:49:41;0.70;;;0.37;;
10333;SDS011;5212;47.892;16.406;2023-04-01T10:55:14;2.70;;;0.60;;
10333;SDS011;5212;47.892;16.406;2023-04-01T11:00:53;1.20;;;0.70;;
10333;SDS011;5212;47.892;16.406;2023-04-01T11:10:00;0.77;;;0.60;;
10333;SDS011;5212;47.892;16.406;2023-04-01T11:16:34;0.70;;;0.47;;
10333;SDS011;5212;47.892;16.406;2023-04-01T11:19:32;0.80;;;0.40;;
10333;SDS011;5212;47.892;16.406;2023-04-01T11:22:17;0.43;;;0.40;;
10333;SDS011;5212;47.892;16.406;2023-04-01T11:30:29;0.90;;;0.50;;
10333;SDS011;5212;47.892;16.406;2023-04-01T11:33:06;0.87;;;0.50;;
10333;SDS011;5212;47.892;16.406;2023-04-01T11:35:42;0.73;;;0.40;;
10333;SDS011;5212;47.892;16.406;2023-04-01T11:38:31;0.67;;;0.40;;
10333;SDS011;5212;47.892;16.406;2023-04-01T11:41:09;0.50;;;0.40;;
10333;SDS011;5212;47.892;16.406;2023-04-01T11:43:46;0.43;;;0.37;;
10333;SDS011;5212;47.892;16.406;2023-04-01T11:46:19;0.60;;;0.50;;
10333;SDS011;5212;47.892;16.406;2023-04-01T11:48:52;2.30;;;0.40;;
10333;SDS011;5212;47.892;16.406;2023-04-01T11:51:28;1.40;;;0.50;;
10333;SDS011;5212;47.892;16.406;2023-04-01T11:54:10;0.73;;;0.60;;
10333;SDS011;5212;47.892;16.406;2023-04-01T11:56:48;0.90;;;0.53;;
10333;SDS011;5212;47.892;16.406;2023-04-01T12:02:15;0.73;;;0.50;;
10333;SDS011;5212;47.892;16.406;2023-04-01T12:04:55;0.63;;;0.50;;
10333;SDS011;5212;47.892;16.406;2023-04-01T12:07:43;1.23;;;0.80;;
10333;SDS011;5212;47.892;16.406;2023-04-01T12:10:17;1.43;;;0.40;;
10333;SDS011;5212;47.892;16.406;2023-04-01T12:12:48;0.50;;;0.50;;
10333;SDS011;5212;47.892;16.406;2023-04-01T12:15:23;3.40;;;0.57;;
10333;SDS011;5212;47.892;16.406;2023-04-01T12:17:56;0.80;;;0.40;;
10333;SDS011;5212;47.892;16.406;2023-04-01T12:20:29;0.80;;;0.40;;
10333;SDS011;5212;47.892;16.406;2023-04-01T12:23:07;0.40;;;0.30;;
10333;SDS011;5212;47.892;16.406;2023-04-01T12:25:52;0.77;;;0.40;;
10333;SDS011;5212;47.892;16.406;2023-04-01T12:28:29;0.57;;;0.40;;
10333;SDS011;5212;47.892;16.406;2023-04-01T12:31:07;0.50;;;0.40;;
10333;SDS011;5212;47.892;16.406;2023-04-01T12:33:47;1.83;;;0.50;;
10333;SDS011;5212;47.892;16.406;2023-04-01T12:36:25;0.40;;;0.40;;
10333;SDS011;5212;47.892;16.406;2023-04-01T12:39:07;1.67;;;0.57;;
10333;SDS011;5212;47.892;16.406;2023-04-01T12:41:45;0.80;;;0.43;;
10333;SDS011;5212;47.892;16.406;2023-04-01T12:44:27;2.00;;;0.70;;
10333;SDS011;5212;47.892;16.406;2023-04-01T12:47:10;0.90;;;0.50;;
10333;SDS011;5212;47.892;16.406;2023-04-01T12:49:53;1.97;;;0.40;;
10333;SDS011;5212;47.892;16.406;2023-04-01T12:52:26;2.33;;;0.50;;
10333;SDS011;5212;47.892;16.406;2023-04-01T12:58:00;1.50;;;0.50;;
10333;SDS011;5212;47.892;16.406;2023-04-01T13:00:44;0.60;;;0.40;;
10333;SDS011;5212;47.892;16.406;2023-04-01T13:03:22;0.67;;;0.60;;
10333;SDS011;5212;47.892;16.406;2023-04-01T13:06:13;0.87;;;0.60;;
10333;SDS011;5212;47.892;16.406;2023-04-01T13:08:48;0.77;;;0.50;;
10333;SDS011;5212;47.892;16.406;2023-04-01T13:11:20;0.83;;;0.40;;
10333;SDS011;5212;47.892;16.406;2023-04-01T13:16:39;0.83;;;0.50;;
10333;SDS011;5212;47.892;16.406;2023-04-01T13:19:09;0.70;;;0.60;;
10333;SDS011;5212;47.892;16.406;2023-04-01T13:21:43;0.50;;;0.50;;
10333;SDS011;5212;47.892;16.406;2023-04-01T13:24:22;0.80;;;0.70;;
10333;SDS011;5212;47.892;16.406;2023-04-01T13:26:56;2.10;;;0.60;;
10333;SDS011;5212;47.892;16.406;2023-04-01T13:29:26;0.40;;;0.40;;
10333;SDS011;5212;47.892;16.406;2023-04-01T13:32:00;0.90;;;0.60;;
10333;SDS011;5212;47.892;16.406;2023-04-01T13:34:34;1.03;;;0.70;;
10333;SDS011;5212;47.892;16.406;2023-04-01T13:37:13;1.60;;;0.80;;
10333;SDS011;5212;47.892;16.406;2023-04-01T13:39:53;1.37;;;0.60;;
10333;SDS011;5212;47.892;16.406;2023-04-01T13:42:28;1.50;;;0.97;;
10333;SDS011;5212;47.892;16.406;2023-04-01T13:44:56;1.53;;;0.60;;
10333;SDS011;5212;47.892;16.406;2023-04-01T13:47:39;1.53;;;0.70;;
10333;SDS011;5212;47.892;16.406;2023-04-01T13:53:22;1.13;;;0.80;;
10333;SDS011;5212;47.892;16.406;2023-04-01T13:55:58;1.23;;;0.73;;
10333;SDS011;5212;47.892;16.406;2023-04-01T13:58:36;1.37;;;0.73;;
10333;SDS011;5212;47.892;16.406;2023-04-01T14:01:08;0.83;;;0.60;;
10333;SDS011;5212;47.892;16.406;2023-04-01T14:03:43;1.67;;;0.63;;
10333;SDS011;5212;47.892;16.406;2023-04-01T14:06:18;2.03;;;0.60;;
10333;SDS011;5212;47.892;16.406;2023-04-01T14:08:55;0.40;;;0.40;;
10333;SDS011;5212;47.892;16.406;2023-04-01T14:11:32;1.37;;;0.80;;
10333;SDS011;5212;47.892;16.406;2023-04-01T14:14:03;0.70;;;0.50;;
10333;SDS011;5212;47.892;16.406;2023-04-01T14:16:46;3.57;;;0.70;;
10333;SDS011;5212;47.892;16.406;2023-04-01T14:19:40;1.50;;;0.50;;
10333;SDS011;5212;47.892;16.406;2023-04-01T14:22:18;0.73;;;0.50;;
10333;SDS011;5212;47.892;16.406;2023-04-01T14:24:52;0.60;;;0.50;;
10333;SDS011;5212;47.892;16.406;2023-04-01T14:27:42;0.70;;;0.40;;
10333;SDS011;5212;47.892;16.406;2023-04-01T14:30:29;0.83;;;0.50;;
10333;SDS011;5212;47.892;16.406;2023-04-01T14:33:17;0.83;;;0.57;;
10333;SDS011;5212;47.892;16.406;2023-04-01T14:35:51;1.77;;;0.60;;
10333;SDS011;5212;47.892;16.406;2023-04-01T14:38:30;0.80;;;0.67;;
10333;SDS011;5212;47.892;16.406;2023-04-01T14:41:12;0.90;;;0.50;;
10333;SDS011;5212;47.892;16.406;2023-04-01T14:43:58;0.70;;;0.60;;
10333;SDS011;5212;47.892;16.406;2023-04-01T14:49:30;0.80;;;0.70;;
10333;SDS011;5212;47.892;16.406;2023-04-01T14:52:04;1.00;;;0.60;;
10333;SDS011;5212;47.892;16.406;2023-04-01T14:54:35;0.60;;;0.60;;
10333;SDS011;5212;47.892;16.406;2023-04-01T14:57:05;0.80;;;0.60;;
10333;SDS011;5212;47.892;16.406;2023-04-01T14:59:39;0.53;;;0.40;;
10333;SDS011;5212;47.892;16.406;2023-04-01T15:02:09;0.57;;;0.50;;
10333;SDS011;5212;47.892;16.406;2023-04-01T15:04:47;0.40;;;0.40;;
10333;SDS011;5212;47.892;16.406;2023-04-01T15:13:22;2.83;;;0.60;;
10333;SDS011;5212;47.892;16.406;2023-04-01T15:15:59;0.90;;;0.50;;
10333;SDS011;5212;47.892;16.406;2023-04-01T15:18:34;1.07;;;0.50;;
10333;SDS011;5212;47.892;16.406;2023-04-01T15:23:56;1.13;;;0.57;;
10333;SDS011;5212;47.892;16.406;2023-04-01T15:26:30;0.67;;;0.60;;
10333;SDS011;5212;47.892;16.406;2023-04-01T15:29:11;0.97;;;0.70;;
10333;SDS011;5212;47.892;16.406;2023-04-01T15:31:55;1.00;;;0.50;;
10333;SDS011;5212;47.892;16.406;2023-04-01T15:34:28;1.57;;;0.70;;
10333;SDS011;5212;47.892;16.406;2023-04-01T15:37:00;1.00;;;0.80;;
10333;SDS011;5212;47.892;16.406;2023-04-01T15:39:30;1.10;;;0.40;;
10333;SDS011;5212;47.892;16.406;2023-04-01T15:42:11;0.80;;;0.60;;
10333;SDS011;5212;47.892;16.406;2023-04-01T15:44:54;0.50;;;0.40;;
10333;SDS011;5212;47.892;16.406;2023-04-01T15:47:37;0.83;;;0.50;;
10333;SDS011;5212;47.892;16.406;2023-04-01T15:50:26;1.43;;;0.60;;
10333;SDS011;5212;47.892;16.406;2023-04-01T15:53:15;0.50;;;0.40;;
10333;SDS011;5212;47.892;16.406;2023-04-01T15:55:48;0.70;;;0.50;;
10333;SDS011;5212;47.892;16.406;2023-04-01T15:58:20;0.50;;;0.40;;
10333;SDS011;5212;47.892;16.406;2023-04-01T16:01:04;0.47;;;0.40;;
10333;SDS011;5212;47.892;16.406;2023-04-01T16:03:38;0.77;;;0.50;;
10333;SDS011;5212;47.892;16.406;2023-04-01T16:06:11;0.43;;;0.40;;
10333;SDS011;5212;47.892;16.406;2023-04-01T16:08:51;0.50;;;0.40;;
10333;SDS011;5212;47.892;16.406;2023-04-01T16:11:27;0.50;;;0.50;;
10333;SDS011;5212;47.892;16.406;2023-04-01T16:13:59;0.47;;;0.40;;
10333;SDS011;5212;47.892;16.406;2023-04-01T16:16:36;0.80;;;0.50;;
10333;SDS011;5212;47.892;16.406;2023-04-01T16:19:13;0.60;;;0.40;;
10333;SDS011;5212;47.892;16.406;2023-04-01T16:21:48;0.80;;;0.60;;
10333;SDS011;5212;47.892;16.406;2023-04-01T16:24:17;0.60;;;0.50;;
10333;SDS011;5212;47.892;16.406;2023-04-01T16:26:50;0.63;;;0.50;;
10333;SDS011;5212;47.892;16.406;2023-04-01T16:29:20;1.10;;;0.80;;
10333;SDS011;5212;47.892;16.406;2023-04-01T16:31:54;1.00;;;0.53;;
10333;SDS011;5212;47.892;16.406;2023-04-01T16:34:26;1.10;;;0.57;;
10333;SDS011;5212;47.892;16.406;2023-04-01T16:36:55;0.60;;;0.40;;
10333;SDS011;5212;47.892;16.406;2023-04-01T16:39:29;0.80;;;0.53;;
10333;SDS011;5212;47.892;16.406;2023-04-01T16:42:10;0.80;;;0.50;;
10333;SDS011;5212;47.892;16.406;2023-04-01T16:44:47;0.60;;;0.40;;
10333;SDS011;5212;47.892;16.406;2023-04-01T16:47:17;0.60;;;0.50;;